Milwaukee, Wisconsin
Traffic Map
Current Weather Conditions
Milwaukee, Wisconsin
Overcast
Overcast
31°
Feels Like: 31°
Wind Chill: 31° Ceiling: 3700
Heat Index: 31° Visibility: 9mi
Dew Point: 23° Wind: 3mph
Humidity: 72% Direction: 200° (SSW)
Pressure: 30.25in Gusts: 0mph
Raw Report DataKMKE 202352Z 20003KT 9SM OVC037 M01/M05 A3025 RMK AO2 SNE03 SLP253 P0000 60000 T10061050 10000 21011 51004
Traffic Incident Summary
Active as of:
Severity:
Category:
InformationThere was an issue retrieving the traffic information for this location. Please try a different location or try again shortly.
Advertisements
Track Severe Weather on mobile